Time;durP1;ratioP1;P1;durP2;ratioP2;P2;SDS_P1;SDS_P2;PMS_P1;PMS_P2;Temp;Humidity;BMP_temperature;BMP_pressure;BME280_temperature;BME280_humidity;BME280_pressure;Samples;Min_cycle;Max_cycle;Signal;HPM_P1;HPM_P2
2020/12/13 00:00:15;;;;;;;6.10;0.38;;;24.00;95.10;;;;;;5063742;28;20032;-90
2020/12/13 00:02:43;;;;;;;2.58;0.15;;;23.70;96.10;;;;;;5037207;28;20033;-89
2020/12/13 00:05:10;;;;;;;2.92;0.20;;;24.20;95.10;;;;;;5053142;28;20389;-93
2020/12/13 00:07:37;;;;;;;3.22;0.20;;;24.20;95.10;;;;;;5071753;28;20028;-91
2020/12/13 00:10:05;;;;;;;1.90;0.13;;;24.80;96.50;;;;;;5067834;28;20020;-88
2020/12/13 00:12:33;;;;;;;3.70;0.30;;;25.30;93.70;;;;;;5071312;28;20028;-90
2020/12/13 00:15:00;;;;;;;3.25;0.30;;;24.90;94.30;;;;;;5056373;28;20025;-90
2020/12/13 00:17:27;;;;;;;3.63;0.63;;;24.80;94.70;;;;;;5078205;28;20020;-94
2020/12/13 00:19:55;;;;;;;3.10;0.55;;;24.90;94.50;;;;;;5064793;28;20116;-91
2020/12/13 00:22:22;;;;;;;2.55;0.57;;;25.20;95.10;;;;;;5066391;28;20033;-91
2020/12/13 00:24:50;;;;;;;2.60;0.25;;;25.30;92.90;;;;;;5076616;28;20523;-91
2020/12/13 00:27:17;;;;;;;3.25;0.30;;;25.40;93.20;;;;;;5069846;28;20051;-90
2020/12/13 00:29:44;;;;;;;4.22;0.40;;;25.50;93.30;;;;;;5087013;22;20056;-90
2020/12/13 00:32:12;;;;;;;2.13;0.65;;;25.40;91.40;;;;;;5051195;28;20048;-91
2020/12/13 00:34:39;;;;;;;2.00;0.38;;;25.50;93.00;;;;;;5065199;28;20510;-93
2020/12/13 00:37:07;;;;;;;1.17;0.17;;;25.30;91.50;;;;;;5071406;28;20020;-91
2020/12/13 00:39:38;;;;;;;2.33;0.30;;;25.10;92.50;;;;;;5067949;28;20473;-90
2020/12/13 00:42:05;;;;;;;1.88;0.80;;;25.10;92.60;;;;;;5071601;28;20031;-91
2020/12/13 00:44:33;;;;;;;2.95;0.30;;;25.40;92.80;;;;;;5036149;28;20029;-90
2020/12/13 00:47:00;;;;;;;2.67;0.20;;;25.00;90.80;;;;;;5051347;28;20473;-90
2020/12/13 00:49:28;;;;;;;2.10;0.10;;;25.00;92.30;;;;;;5045921;28;20036;-90
2020/12/13 00:52:04;;;;;;;0.75;0.10;;;24.80;92.00;;;;;;5060941;28;20103;-90
2020/12/13 00:54:31;;;;;;;3.65;0.38;;;24.60;92.00;;;;;;5055445;28;20041;-90
2020/12/13 00:56:58;;;;;;;1.83;0.20;;;24.70;92.80;;;;;;5035540;28;20017;-90
2020/12/13 00:59:26;;;;;;;3.88;0.30;;;24.90;90.80;;;;;;5048002;28;20119;-90
2020/12/13 01:01:53;;;;;;;2.63;0.50;;;24.90;92.00;;;;;;5061175;28;20393;-90
2020/12/13 01:04:21;;;;;;;2.42;0.30;;;25.00;92.20;;;;;;5052575;28;20017;-89
2020/12/13 01:06:48;;;;;;;1.55;0.25;;;25.20;91.90;;;;;;5057834;28;20017;-91
2020/12/13 01:09:15;;;;;;;1.80;0.20;;;25.60;92.00;;;;;;5053733;28;20021;-92
2020/12/13 01:11:43;;;;;;;2.15;0.20;;;25.40;92.40;;;;;;5057639;28;20045;-89
2020/12/13 01:14:10;;;;;;;3.03;0.22;;;25.30;91.60;;;;;;5061864;28;20037;-89
2020/12/13 01:16:38;;;;;;;2.58;0.70;;;25.20;91.90;;;;;;5078011;28;20021;-90
2020/12/13 01:19:05;;;;;;;1.58;0.25;;;25.30;91.80;;;;;;5067345;28;20021;-90
2020/12/13 01:21:33;;;;;;;1.65;0.20;;;25.40;91.60;;;;;;5061826;28;20489;-90
2020/12/13 01:24:00;;;;;;;3.75;0.30;;;25.30;91.90;;;;;;5044207;28;20025;-90
2020/12/13 01:26:28;;;;;;;3.33;0.40;;;25.40;91.60;;;;;;5074798;28;20090;-89
2020/12/13 01:28:55;;;;;;;4.50;0.35;;;25.30;91.80;;;;;;5065832;28;20037;-90
2020/12/13 01:31:24;;;;;;;2.85;0.20;;;25.10;91.10;;;;;;5086109;22;20418;-89
2020/12/13 01:33:52;;;;;;;3.50;0.28;;;25.00;91.10;;;;;;5099455;22;20048;-87
2020/12/13 01:36:24;;;;;;;2.03;0.20;;;25.10;92.60;;;;;;5057283;28;20443;-91
2020/12/13 01:38:52;;;;;;;0.93;0.10;;;25.50;92.50;;;;;;5093776;22;20497;-91
2020/12/13 01:41:21;;;;;;;2.65;0.20;;;25.10;91.90;;;;;;5051562;28;20024;-82
2020/12/13 01:44:03;;;;;;;1.38;0.20;;;24.90;92.20;;;;;;5064334;28;20047;-83
2020/12/13 01:46:31;;;;;;;2.15;0.10;;;24.80;92.40;;;;;;5056908;28;20036;-85
2020/12/13 01:49:07;;;;;;;2.80;0.20;;;25.40;91.20;;;;;;5097578;22;20166;-85
2020/12/13 01:52:03;;;;;;;3.95;0.73;;;25.40;90.70;;;;;;5088744;28;20032;-85
2020/12/13 01:54:32;;;;;;;4.22;0.30;;;25.70;91.60;;;;;;5084194;28;20085;-84
2020/12/13 01:57:02;;;;;;;2.67;0.38;;;25.50;89.80;;;;;;5097815;28;20023;-90
2020/12/13 01:59:33;;;;;;;3.97;0.20;;;25.20;90.10;;;;;;5086646;28;20384;-90
2020/12/13 02:02:04;;;;;;;1.77;0.20;;;25.20;90.40;;;;;;5083074;28;20036;-91
2020/12/13 02:04:35;;;;;;;2.42;0.10;;;25.30;90.30;;;;;;5077730;22;20057;-90
2020/12/13 02:07:05;;;;;;;2.40;0.25;;;25.10;90.50;;;;;;5056508;28;20155;-90
2020/12/13 02:09:32;;;;;;;1.80;0.20;;;24.50;91.60;;;;;;5051263;28;20024;-89
2020/12/13 02:12:00;;;;;;;2.53;0.40;;;24.40;91.50;;;;;;5054692;28;20021;-91
2020/12/13 02:14:27;;;;;;;4.07;0.20;;;24.00;91.50;;;;;;5050249;28;20047;-88
2020/12/13 02:16:54;;;;;;;3.85;0.40;;;23.80;93.10;;;;;;5053828;28;20017;-87
2020/12/13 02:19:22;;;;;;;2.10;0.10;;;23.50;93.40;;;;;;5045062;28;20385;-87
2020/12/13 02:21:51;;;;;;;2.85;0.20;;;23.60;92.70;;;;;;5052724;28;20033;-90
2020/12/13 02:24:19;;;;;;;5.30;0.52;;;23.50;93.60;;;;;;5046515;28;20032;-85
2020/12/13 02:26:47;;;;;;;10.15;1.05;;;23.30;94.80;;;;;;5053045;28;20021;-84
2020/12/13 02:29:15;;;;;;;6.88;1.35;;;23.30;95.20;;;;;;5045240;28;20017;-84
2020/12/13 02:31:43;;;;;;;3.03;0.30;;;23.40;94.70;;;;;;5052823;28;20033;-84
2020/12/13 02:34:10;;;;;;;3.95;0.40;;;23.40;95.40;;;;;;5045659;28;20084;-84
2020/12/13 02:36:38;;;;;;;2.33;0.38;;;23.40;94.10;;;;;;5053223;28;20020;-84
2020/12/13 02:39:07;;;;;;;7.43;0.75;;;24.40;93.20;;;;;;5056558;22;20068;-88
2020/12/13 02:41:35;;;;;;;4.03;0.77;;;24.70;91.50;;;;;;5034171;28;20061;-83
2020/12/13 02:44:02;;;;;;;3.60;0.30;;;24.50;93.50;;;;;;5033073;28;20080;-84
2020/12/13 02:46:30;;;;;;;4.43;0.90;;;25.00;91.90;;;;;;5036353;28;20025;-84
2020/12/13 02:48:57;;;;;;;2.17;0.32;;;25.70;90.50;;;;;;5050788;28;20034;-85
2020/12/13 02:51:25;;;;;;;3.28;0.70;;;26.10;91.50;;;;;;5047752;28;20478;-87
2020/12/13 02:53:52;;;;;;;2.08;0.17;;;25.20;90.60;;;;;;5031392;28;20486;-86
2020/12/13 02:56:20;;;;;;;3.25;0.68;;;25.00;93.20;;;;;;5046562;28;20029;-86
2020/12/13 02:58:47;;;;;;;4.13;0.45;;;24.90;90.90;;;;;;5024809;28;20064;-83
2020/12/13 03:01:18;;;;;;;2.90;0.47;;;25.20;91.40;;;;;;5031509;28;20091;-82
2020/12/13 03:03:46;;;;;;;3.00;0.45;;;24.80;91.90;;;;;;5042964;28;20037;-85
2020/12/13 03:06:14;;;;;;;4.88;0.73;;;24.40;92.10;;;;;;5031969;28;20103;-85
2020/12/13 03:08:41;;;;;;;4.95;0.40;;;24.60;93.60;;;;;;5023129;28;20479;-84
2020/12/13 03:11:08;;;;;;;2.72;0.50;;;25.00;92.90;;;;;;5046218;28;20032;-85
2020/12/13 03:13:35;;;;;;;4.57;0.60;;;24.90;93.20;;;;;;5033809;28;20489;-83
2020/12/13 03:16:03;;;;;;;4.60;0.30;;;24.40;93.30;;;;;;5040621;28;20439;-84
2020/12/13 03:18:30;;;;;;;1.80;0.50;;;24.80;92.80;;;;;;5045555;28;20033;-84
2020/12/13 03:20:57;;;;;;;1.98;0.60;;;25.30;91.60;;;;;;5048450;28;20021;-84
2020/12/13 03:23:25;;;;;;;3.38;0.40;;;26.00;91.60;;;;;;5033656;28;20025;-84
2020/12/13 03:25:52;;;;;;;2.00;0.30;;;26.10;91.40;;;;;;5030888;28;20025;-86
2020/12/13 03:28:19;;;;;;;6.70;0.50;;;26.00;92.40;;;;;;5036949;28;20043;-86
2020/12/13 03:30:47;;;;;;;4.65;0.60;;;26.00;92.60;;;;;;5050689;28;20148;-88
2020/12/13 03:33:14;;;;;;;5.57;0.60;;;25.20;93.70;;;;;;5030766;28;20033;-87
2020/12/13 03:35:41;;;;;;;7.10;1.02;;;24.00;95.70;;;;;;5052368;28;20040;-86
2020/12/13 03:38:10;;;;;;;6.90;0.60;;;23.60;96.50;;;;;;5048944;23;20049;31
2020/12/13 03:40:38;;;;;;;5.57;0.80;;;23.40;96.40;;;;;;5016908;22;20048;-87
2020/12/13 03:43:05;;;;;;;3.15;0.45;;;23.20;97.00;;;;;;5045309;22;20045;-87
2020/12/13 03:45:32;;;;;;;6.97;0.30;;;23.90;95.60;;;;;;5051011;28;20024;-86
2020/12/13 03:47:59;;;;;;;5.07;0.40;;;24.70;95.20;;;;;;5085291;23;20095;-86
2020/12/13 03:50:38;;;;;;;2.95;0.43;;;24.80;94.00;;;;;;5071997;28;20021;-86
2020/12/13 03:53:13;;;;;;;6.95;1.48;;;24.40;94.70;;;;;;5045505;28;20024;-86
2020/12/13 03:55:41;;;;;;;4.03;0.30;;;23.90;95.90;;;;;;5080201;22;20190;-84
2020/12/13 03:58:09;;;;;;;6.32;1.35;;;24.20;94.30;;;;;;5048126;28;20029;-88
2020/12/13 04:00:37;;;;;;;6.07;0.50;;;24.10;95.10;;;;;;5065921;28;20120;-86
2020/12/13 04:03:07;;;;;;;3.75;0.63;;;23.90;94.80;;;;;;5066144;28;20516;-88
2020/12/13 04:05:34;;;;;;;4.25;0.45;;;24.10;94.50;;;;;;5062041;28;20023;-87
2020/12/13 04:08:02;;;;;;;2.47;0.68;;;24.10;94.90;;;;;;5053536;28;20529;-86
2020/12/13 04:10:29;;;;;;;4.18;0.52;;;24.20;94.30;;;;;;5071425;28;20547;-86
2020/12/13 04:12:57;;;;;;;2.97;0.50;;;24.40;94.40;;;;;;5073639;22;20693;-87
2020/12/13 04:15:24;;;;;;;4.30;0.45;;;24.20;94.40;;;;;;5033271;28;20037;-87
2020/12/13 04:17:51;;;;;;;5.43;0.63;;;24.10;94.30;;;;;;5046550;28;20120;-87
2020/12/13 04:20:19;;;;;;;3.55;0.57;;;24.00;95.10;;;;;;5048042;28;20033;-85
2020/12/13 04:22:46;;;;;;;5.70;1.00;;;24.20;95.00;;;;;;5043035;28;20084;-87
2020/12/13 04:25:14;;;;;;;5.05;0.43;;;24.30;95.10;;;;;;5034166;28;20023;-89
2020/12/13 04:27:41;;;;;;;2.35;0.25;;;24.10;96.10;;;;;;5049676;28;20036;-87
2020/12/13 04:30:09;;;;;;;3.88;0.30;;;23.80;96.00;;;;;;5034261;28;20021;-87
2020/12/13 04:32:36;;;;;;;2.25;0.50;;;23.60;96.30;;;;;;5049114;28;20068;-89
2020/12/13 04:35:04;;;;;;;5.93;0.80;;;23.90;95.60;;;;;;5034483;28;20048;-88
2020/12/13 04:37:32;;;;;;;3.20;0.35;;;23.60;95.30;;;;;;5031865;28;20415;-89
2020/12/13 04:40:00;;;;;;;5.28;0.55;;;23.40;95.20;;;;;;5048888;28;20032;-88
2020/12/13 04:42:29;;;;;;;3.65;0.40;;;23.50;95.20;;;;;;5050182;28;20041;-86
2020/12/13 04:44:56;;;;;;;3.42;0.50;;;23.60;95.70;;;;;;5056989;22;20572;-92
2020/12/13 04:47:29;;;;;;;2.10;0.40;;;23.70;95.30;;;;;;5067610;28;20050;-93
2020/12/13 04:50:01;;;;;;;5.40;0.88;;;23.70;95.40;;;;;;5040089;28;20021;-87
2020/12/13 04:52:29;;;;;;;3.38;0.30;;;23.70;94.70;;;;;;5074632;28;20031;-86
2020/12/13 04:54:57;;;;;;;3.20;0.63;;;23.60;95.30;;;;;;5071355;28;20031;-85
2020/12/13 04:57:24;;;;;;;3.28;0.57;;;23.50;94.80;;;;;;5071230;28;20029;-92
2020/12/13 04:59:51;;;;;;;4.57;0.30;;;23.10;95.40;;;;;;5081761;28;20485;-85
2020/12/13 05:02:19;;;;;;;3.28;0.28;;;23.20;95.40;;;;;;5077347;28;20028;-86
2020/12/13 05:04:46;;;;;;;6.05;0.85;;;23.30;95.50;;;;;;5059690;28;20086;-88
2020/12/13 05:07:13;;;;;;;3.47;0.38;;;23.30;96.00;;;;;;5057425;28;20071;-83
2020/12/13 05:09:41;;;;;;;3.85;0.50;;;23.50;95.50;;;;;;5044519;28;20517;-87
2020/12/13 05:12:09;;;;;;;4.50;0.43;;;23.50;95.50;;;;;;5035466;28;20040;-90
2020/12/13 05:14:36;;;;;;;3.70;0.43;;;23.60;95.60;;;;;;5066251;28;20135;-89
2020/12/13 05:17:12;;;;;;;4.60;0.32;;;23.60;95.60;;;;;;5039068;28;20135;-88
2020/12/13 05:19:42;;;;;;;3.40;0.47;;;23.40;96.00;;;;;;5048553;28;20374;-89
2020/12/13 05:22:10;;;;;;;5.82;0.40;;;23.40;97.20;;;;;;5075555;28;20020;-93
2020/12/13 05:24:37;;;;;;;10.48;1.15;;;23.50;97.20;;;;;;5064108;28;20044;-81
2020/12/13 05:27:06;;;;;;;4.53;0.50;;;23.60;96.90;;;;;;5061528;28;20025;-81
2020/12/13 05:29:37;;;;;;;3.08;0.50;;;23.60;96.40;;;;;;5079626;28;20015;-86
2020/12/13 05:32:22;;;;;;;8.27;0.30;;;23.70;96.50;;;;;;5071717;28;20055;-86
2020/12/13 05:34:51;;;;;;;4.80;0.28;;;23.20;96.40;;;;;;5086845;28;20674;-83
2020/12/13 05:37:18;;;;;;;4.03;0.70;;;23.00;96.50;;;;;;5090843;28;20016;-87
2020/12/13 05:39:50;;;;;;;4.20;0.85;;;23.00;96.20;;;;;;5058712;28;20630;-86
2020/12/13 05:42:38;;;;;;;6.75;0.70;;;23.00;95.30;;;;;;5068670;28;20024;-88
2020/12/13 05:50:34;;;;;;;3.28;0.75;;;23.20;96.50;;;;;;5060538;22;20152;-84
2020/12/13 05:53:03;;;;;;;4.90;1.58;;;23.40;95.60;;;;;;5037076;28;20055;-85
2020/12/13 05:55:31;;;;;;;4.88;0.80;;;23.40;95.00;;;;;;5075261;22;20061;-84
2020/12/13 05:57:59;;;;;;;2.15;0.30;;;23.30;94.80;;;;;;5051814;28;20071;-85
2020/12/13 06:00:28;;;;;;;6.32;0.63;;;23.20;94.80;;;;;;5074138;28;20496;-85
2020/12/13 06:02:58;;;;;;;2.65;0.35;;;23.30;95.60;;;;;;5085967;22;20092;-84
2020/12/13 06:05:28;;;;;;;3.85;0.68;;;23.50;94.60;;;;;;5055895;28;20033;-84
2020/12/13 06:07:59;;;;;;;5.28;1.08;;;23.50;95.20;;;;;;5052706;28;20159;-84
2020/12/13 06:10:32;;;;;;;2.67;0.70;;;23.30;95.00;;;;;;5074191;28;20017;-84
2020/12/13 06:13:01;;;;;;;3.08;0.38;;;23.00;95.70;;;;;;5070069;28;20040;-84
2020/12/13 06:15:31;;;;;;;3.63;0.40;;;22.90;95.40;;;;;;5073902;28;20036;-85
2020/12/13 06:18:04;;;;;;;5.63;0.55;;;22.80;95.20;;;;;;5069986;28;20025;-84
2020/12/13 06:20:32;;;;;;;3.22;0.43;;;22.80;96.70;;;;;;5079364;22;20077;-84
2020/12/13 06:23:00;;;;;;;3.60;0.30;;;22.90;97.10;;;;;;5050882;28;20036;-85
2020/12/13 06:25:28;;;;;;;5.63;0.75;;;22.80;97.50;;;;;;5053932;28;20104;-85
2020/12/13 06:27:56;;;;;;;5.38;0.40;;;22.60;97.50;;;;;;5051446;28;20033;-85
2020/12/13 06:30:23;;;;;;;3.80;0.65;;;22.50;97.80;;;;;;5066319;28;20078;-85
2020/12/13 06:32:53;;;;;;;2.10;0.32;;;22.60;97.70;;;;;;5071324;28;20020;-85
2020/12/13 06:35:20;;;;;;;5.05;1.25;;;22.70;97.20;;;;;;5070623;28;20040;-86
2020/12/13 06:37:48;;;;;;;2.45;0.40;;;22.70;97.70;;;;;;5070618;28;20037;-86
2020/12/13 06:40:21;;;;;;;3.55;0.65;;;22.60;97.90;;;;;;5064593;22;20049;-82
2020/12/13 06:42:50;;;;;;;2.05;0.40;;;22.70;98.00;;;;;;5066051;28;20127;-80
2020/12/13 06:45:18;;;;;;;1.85;0.30;;;22.50;98.00;;;;;;5063086;28;20028;-80
2020/12/13 06:47:46;;;;;;;1.65;0.22;;;22.30;97.80;;;;;;5071340;28;20029;-83
2020/12/13 06:50:24;;;;;;;1.17;0.10;;;21.90;98.70;;;;;;5035212;28;20458;-82
2020/12/13 06:52:53;;;;;;;5.20;0.30;;;21.90;99.40;;;;;;5040189;23;20049;-83
2020/12/13 06:55:40;;;;;;;3.38;0.20;;;21.80;99.90;;;;;;5032612;28;20120;-82
2020/12/13 06:58:10;;;;;;;4.80;0.73;;;21.60;99.90;;;;;;5036038;28;20032;-82
2020/12/13 07:00:50;;;;;;;2.38;0.50;;;21.60;99.90;;;;;;5053197;28;20074;-81
2020/12/13 07:03:27;;;;;;;4.90;0.55;;;21.60;99.90;;;;;;5052306;28;20021;-81
2020/12/13 07:05:57;;;;;;;4.15;0.40;;;21.60;99.90;;;;;;5050871;28;20381;-83
2020/12/13 07:08:26;;;;;;;7.13;1.13;;;21.50;99.90;;;;;;5048588;28;20059;-85
2020/12/13 07:10:54;;;;;;;4.05;0.70;;;21.60;99.90;;;;;;5052871;28;20025;-85
2020/12/13 07:13:24;;;;;;;5.75;0.63;;;21.50;99.90;;;;;;5050745;28;20045;-85
2020/12/13 07:15:55;;;;;;;5.00;0.75;;;21.60;99.90;;;;;;5053002;28;20029;-82
2020/12/13 07:18:23;;;;;;;5.18;1.17;;;21.80;99.90;;;;;;5051091;28;20021;-83
2020/12/13 07:20:51;;;;;;;6.03;0.68;;;21.90;99.90;;;;;;5034534;28;20152;-82
2020/12/13 07:23:18;;;;;;;7.25;0.57;;;21.80;99.90;;;;;;5050746;28;20429;-82
2020/12/13 07:25:46;;;;;;;8.90;0.60;;;21.70;99.90;;;;;;5052580;28;20508;-82
2020/12/13 07:28:15;;;;;;;4.35;0.73;;;21.70;99.90;;;;;;5048157;28;20063;-82
2020/12/13 07:30:43;;;;;;;4.95;1.00;;;21.60;99.90;;;;;;5051653;28;20040;-83
2020/12/13 07:33:10;;;;;;;7.68;0.95;;;21.60;99.90;;;;;;5032618;28;20029;-83
2020/12/13 07:35:37;;;;;;;4.32;0.35;;;21.50;99.90;;;;;;5052432;28;20025;-84
2020/12/13 07:38:04;;;;;;;4.72;0.47;;;21.40;99.90;;;;;;5050243;28;20817;-84
2020/12/13 07:40:32;;;;;;;5.18;1.10;;;21.40;99.90;;;;;;5034391;28;20496;-83
2020/12/13 07:43:04;;;;;;;4.13;0.60;;;21.40;99.90;;;;;;5050158;28;20063;-83
2020/12/13 07:45:32;;;;;;;3.88;0.75;;;21.50;99.90;;;;;;5049868;28;20021;-84
2020/12/13 07:48:02;;;;;;;4.72;0.50;;;21.60;99.90;;;;;;5050711;28;20024;-84
2020/12/13 07:50:34;;;;;;;4.07;0.50;;;21.80;99.90;;;;;;5052372;28;20025;-82
2020/12/13 07:53:04;;;;;;;2.95;0.30;;;21.80;99.90;;;;;;5054880;28;20420;-81
2020/12/13 07:55:32;;;;;;;5.45;0.73;;;21.80;99.90;;;;;;5092456;22;20480;-83
2020/12/13 07:58:00;;;;;;;4.43;0.30;;;21.80;99.90;;;;;;5077948;22;20130;-82
2020/12/13 08:00:27;;;;;;;5.30;0.77;;;21.70;99.90;;;;;;5072143;28;20035;-83
2020/12/13 08:02:58;;;;;;;7.50;0.60;;;21.40;99.90;;;;;;5073581;22;20059;-84
2020/12/13 08:05:27;;;;;;;3.60;0.50;;;21.30;99.90;;;;;;5054368;28;20032;-81
2020/12/13 08:08:01;;;;;;;3.08;0.50;;;21.30;99.90;;;;;;5069284;28;20477;-82
2020/12/13 08:10:29;;;;;;;3.03;0.40;;;21.30;99.90;;;;;;5102289;22;20354;-82
2020/12/13 08:12:57;;;;;;;8.73;1.00;;;21.20;99.90;;;;;;5050760;28;20608;-82
2020/12/13 08:15:25;;;;;;;6.90;0.50;;;21.20;99.90;;;;;;5071629;28;20029;-83
2020/12/13 08:18:07;;;;;;;6.05;0.52;;;21.00;99.90;;;;;;5049227;28;20040;-82
2020/12/13 08:20:55;;;;;;;9.43;1.05;;;21.00;99.90;;;;;;5071530;28;20021;-82
2020/12/13 08:23:25;;;;;;;3.72;0.60;;;21.00;99.90;;;;;;5052084;28;20035;-82
2020/12/13 08:25:52;;;;;;;7.13;0.70;;;20.90;99.90;;;;;;5053071;28;20027;-82
2020/12/13 08:28:20;;;;;;;3.75;0.70;;;20.90;99.90;;;;;;5067519;22;20052;-84
2020/12/13 08:30:55;;;;;;;3.92;0.82;;;20.90;99.90;;;;;;5077522;28;20024;-85
2020/12/13 08:33:25;;;;;;;5.90;0.90;;;20.90;99.90;;;;;;5061426;28;20070;-87
2020/12/13 08:35:52;;;;;;;5.03;0.70;;;20.90;99.90;;;;;;5068263;28;20024;-85
2020/12/13 08:38:21;;;;;;;3.47;0.40;;;20.90;99.90;;;;;;5073854;28;20024;-86
2020/12/13 08:40:49;;;;;;;5.28;0.68;;;20.80;99.90;;;;;;5080903;28;20028;-85
2020/12/13 08:43:20;;;;;;;8.15;0.55;;;20.70;99.90;;;;;;5072695;28;20024;-86
2020/12/13 08:45:54;;;;;;;5.07;0.40;;;20.70;99.90;;;;;;5078634;28;20036;-85
2020/12/13 08:48:28;;;;;;;8.77;1.50;;;20.60;99.90;;;;;;5075152;28;20393;-85
2020/12/13 08:51:28;;;;;;;6.13;1.30;;;20.60;99.90;;;;;;5062419;28;20082;-86
2020/12/13 08:54:02;;;;;;;5.65;2.22;;;20.70;99.90;;;;;;5040209;28;20036;-87
2020/12/13 08:56:34;;;;;;;10.20;1.98;;;20.60;99.90;;;;;;5073611;28;20021;-84
2020/12/13 08:59:01;;;;;;;6.20;0.60;;;20.60;99.90;;;;;;5071944;28;20028;-86
2020/12/13 09:01:33;;;;;;;5.40;1.20;;;20.50;99.90;;;;;;5078684;22;20059;-85
2020/12/13 09:04:00;;;;;;;5.55;0.57;;;20.50;99.90;;;;;;5044406;28;20036;-86
2020/12/13 09:06:33;;;;;;;5.28;1.38;;;20.50;99.90;;;;;;5057614;28;20424;-86
2020/12/13 09:09:13;;;;;;;6.68;0.90;;;20.50;99.90;;;;;;5071767;28;20024;-85
2020/12/13 09:11:42;;;;;;;5.40;1.45;;;20.50;99.90;;;;;;5064638;28;20017;-86
2020/12/13 09:14:09;;;;;;;4.18;0.85;;;20.50;99.90;;;;;;5075813;28;20468;-86
2020/12/13 09:16:36;;;;;;;7.45;1.10;;;20.60;99.90;;;;;;5068225;28;20016;-83
2020/12/13 09:19:12;;;;;;;9.82;0.70;;;20.60;99.90;;;;;;5088786;28;20028;-84
2020/12/13 09:21:58;;;;;;;6.53;0.93;;;20.50;99.90;;;;;;5095747;28;20118;-85
2020/12/13 09:24:32;;;;;;;4.53;0.60;;;20.50;99.90;;;;;;5071674;28;20116;-86
2020/12/13 09:26:59;;;;;;;;;;;20.50;99.90;;;;;;5082629;28;20134;-84
2020/12/13 09:29:27;;;;;;;7.10;0.80;;;20.50;99.90;;;;;;5083338;28;19953;-84
2020/12/13 09:31:54;;;;;;;7.38;1.05;;;20.50;99.90;;;;;;5093570;28;20032;-85
2020/12/13 09:34:23;;;;;;;3.78;0.40;;;20.50;99.90;;;;;;5071748;28;20040;-85
2020/12/13 09:36:51;;;;;;;4.90;0.30;;;20.50;99.90;;;;;;5074374;28;20051;-85
2020/12/13 09:39:19;;;;;;;4.13;0.50;;;20.50;99.90;;;;;;5079862;28;20024;-85
2020/12/13 09:41:46;;;;;;;5.63;0.43;;;20.60;99.90;;;;;;5080241;28;20028;-85
2020/12/13 09:44:14;;;;;;;5.63;1.05;;;20.60;99.90;;;;;;5072335;28;20043;-85
2020/12/13 09:46:41;;;;;;;7.25;0.70;;;20.60;99.90;;;;;;5056704;28;20056;-85
2020/12/13 09:49:08;;;;;;;7.15;0.88;;;20.40;99.90;;;;;;5056570;28;20044;-85
2020/12/13 09:51:36;;;;;;;5.90;0.60;;;20.30;99.90;;;;;;5074742;28;20020;-86
2020/12/13 09:54:03;;;;;;;8.27;0.90;;;20.20;99.90;;;;;;5074642;28;20036;-84
2020/12/13 09:56:30;;;;;;;8.65;0.98;;;20.10;99.90;;;;;;5075086;28;20051;-85
2020/12/13 09:58:58;;;;;;;9.35;1.60;;;20.10;99.90;;;;;;5056084;28;20037;-84
2020/12/13 10:01:25;;;;;;;7.72;1.10;;;20.20;99.90;;;;;;5077273;22;20045;-86
2020/12/13 10:03:54;;;;;;;12.50;1.25;;;20.20;99.90;;;;;;5061433;22;20056;-86
2020/12/13 10:09:05;;;;;;;6.88;0.65;;;20.10;99.90;;;;;;5061257;22;20025;-85
2020/12/13 10:11:33;;;;;;;3.55;0.75;;;20.10;99.90;;;;;;5041153;28;20029;-84
2020/12/13 10:14:01;;;;;;;6.75;0.68;;;20.10;99.90;;;;;;5049593;28;20047;-84
2020/12/13 10:16:29;;;;;;;8.77;1.58;;;20.00;99.90;;;;;;5035078;28;20570;-85
2020/12/13 10:18:57;;;;;;;10.07;1.20;;;20.00;99.90;;;;;;5071559;22;20060;-83
2020/12/13 10:21:29;;;;;;;4.38;0.50;;;20.00;99.90;;;;;;5051321;28;20539;-85
2020/12/13 10:23:57;;;;;;;7.13;0.73;;;20.00;99.90;;;;;;5071931;28;20031;-84
2020/12/13 10:26:26;;;;;;;3.97;0.73;;;20.10;99.90;;;;;;5054760;28;20029;-84
2020/12/13 10:28:54;;;;;;;5.43;0.82;;;20.00;99.90;;;;;;5079925;28;20066;-84
2020/12/13 10:31:28;;;;;;;6.45;0.70;;;20.10;99.90;;;;;;5081622;28;20064;-84
2020/12/13 10:33:56;;;;;;;9.98;1.30;;;20.10;99.90;;;;;;5073178;28;20032;-84
2020/12/13 10:36:24;;;;;;;4.88;0.80;;;20.10;99.90;;;;;;5059406;22;20056;-84
2020/12/13 10:38:54;;;;;;;5.60;0.82;;;20.10;99.90;;;;;;5048605;28;20037;-89
2020/12/13 10:41:22;;;;;;;6.40;1.20;;;20.20;99.90;;;;;;5048633;28;20024;-83
2020/12/13 10:43:51;;;;;;;7.28;0.65;;;20.10;99.90;;;;;;5037724;28;20033;-87
2020/12/13 10:46:18;;;;;;;9.68;1.92;;;20.20;99.90;;;;;;5049126;28;20641;-84
2020/12/13 10:48:46;;;;;;;7.25;0.90;;;20.20;99.90;;;;;;5047034;28;20028;-84
2020/12/13 10:51:19;;;;;;;4.78;0.50;;;20.30;99.90;;;;;;5049180;28;20120;-85
2020/12/13 10:53:47;;;;;;;5.77;1.13;;;20.00;99.90;;;;;;5045894;28;20043;-84
2020/12/13 10:56:15;;;;;;;5.88;1.00;;;19.90;99.90;;;;;;5053932;28;20021;-84
2020/12/13 10:58:46;;;;;;;7.32;0.93;;;19.70;99.90;;;;;;5049472;28;20446;-84
2020/12/13 11:01:14;;;;;;;7.35;0.93;;;19.70;99.90;;;;;;5055193;28;20474;-84
2020/12/13 11:03:41;;;;;;;5.95;0.82;;;19.60;99.90;;;;;;5062410;28;20016;-83
2020/12/13 11:06:09;;;;;;;7.45;0.80;;;19.60;99.90;;;;;;5046479;28;20490;-84
2020/12/13 11:08:37;;;;;;;6.65;0.50;;;19.60;99.90;;;;;;5073357;22;20075;-83
2020/12/13 11:11:06;;;;;;;7.47;1.35;;;19.70;99.90;;;;;;5064388;28;20020;-83
2020/12/13 11:13:34;;;;;;;4.78;0.60;;;19.60;99.90;;;;;;5058796;28;20064;-84
2020/12/13 11:16:01;;;;;;;5.65;0.45;;;19.60;99.90;;;;;;5084965;28;20493;-84
2020/12/13 11:18:30;;;;;;;6.75;0.82;;;19.60;99.90;;;;;;5082448;28;20016;-84
2020/12/13 11:20:59;;;;;;;5.70;0.90;;;19.60;99.90;;;;;;5080341;28;20031;-82
2020/12/13 11:23:26;;;;;;;9.50;0.50;;;19.50;99.90;;;;;;5075545;28;20032;-83
2020/12/13 11:25:54;;;;;;;5.32;0.90;;;19.60;99.90;;;;;;5073956;28;20094;-83
2020/12/13 11:28:21;;;;;;;5.35;0.75;;;19.60;99.90;;;;;;5065566;28;20029;-83
2020/12/13 11:30:49;;;;;;;7.30;1.00;;;19.60;99.90;;;;;;5070730;28;20051;-86
2020/12/13 11:33:16;;;;;;;9.18;1.08;;;19.60;99.90;;;;;;5074133;28;20032;-88
2020/12/13 11:35:44;;;;;;;5.00;0.50;;;19.50;99.90;;;;;;5073751;28;20021;-87
2020/12/13 11:38:11;;;;;;;4.65;0.75;;;19.20;99.90;;;;;;5052722;28;20024;-86
2020/12/13 11:40:39;;;;;;;7.07;0.60;;;19.10;99.90;;;;;;5076158;28;20027;-86
2020/12/13 11:43:06;;;;;;;4.75;0.50;;;19.10;99.90;;;;;;5068171;28;20040;-86
2020/12/13 11:45:33;;;;;;;6.88;0.90;;;18.90;99.90;;;;;;5080662;28;20016;-89
2020/12/13 11:48:02;;;;;;;3.13;0.20;;;18.80;99.90;;;;;;5077626;28;20095;-88
2020/12/13 11:50:40;;;;;;;3.03;0.30;;;18.60;99.90;;;;;;5062597;28;20029;-87
2020/12/13 11:53:08;;;;;;;5.57;0.50;;;18.60;99.90;;;;;;5066224;28;20036;-87
2020/12/13 11:55:36;;;;;;;4.63;0.77;;;18.70;99.90;;;;;;5072195;28;20093;-87
2020/12/13 11:58:04;;;;;;;7.57;1.30;;;18.70;99.90;;;;;;5054292;28;20021;-88
2020/12/13 12:00:31;;;;;;;4.90;0.75;;;18.70;99.90;;;;;;5072006;28;20028;-87
2020/12/13 12:02:58;;;;;;;3.88;0.30;;;18.80;99.90;;;;;;5066663;28;20112;-87
2020/12/13 12:05:26;;;;;;;5.15;0.73;;;18.80;99.90;;;;;;5076384;28;20044;-88
2020/12/13 12:07:54;;;;;;;3.33;0.40;;;18.80;99.90;;;;;;5081702;28;20048;-88
2020/12/13 12:10:22;;;;;;;3.65;0.40;;;18.70;99.90;;;;;;5086813;22;21360;-88
2020/12/13 12:12:49;;;;;;;6.55;0.68;;;18.70;99.90;;;;;;5049942;23;20451;-88
2020/12/13 12:15:16;;;;;;;6.50;0.55;;;18.70;99.90;;;;;;5053641;28;20534;-88
2020/12/13 12:17:43;;;;;;;4.93;0.50;;;18.70;99.90;;;;;;5077780;23;20137;-89
2020/12/13 12:20:11;;;;;;;3.47;0.57;;;18.60;99.90;;;;;;5073628;28;20040;-88
2020/12/13 12:22:38;;;;;;;5.88;0.75;;;18.60;99.90;;;;;;5071034;28;20013;-89
2020/12/13 12:25:05;;;;;;;4.55;0.60;;;18.70;99.90;;;;;;5071940;22;20045;-88
2020/12/13 12:27:33;;;;;;;6.93;1.10;;;18.60;99.90;;;;;;5049653;28;20033;-88
2020/12/13 12:30:00;;;;;;;4.25;0.45;;;18.70;99.90;;;;;;5049521;28;20025;-88
2020/12/13 12:32:28;;;;;;;5.78;0.82;;;18.50;99.90;;;;;;5035360;28;20041;-89
2020/12/13 12:34:55;;;;;;;5.95;0.98;;;18.50;99.90;;;;;;5047158;28;20037;-88
2020/12/13 12:37:22;;;;;;;2.15;0.50;;;18.50;99.90;;;;;;5046143;28;20025;-88
2020/12/13 12:39:50;;;;;;;5.82;1.17;;;18.50;99.90;;;;;;5049152;28;20091;-88
2020/12/13 12:42:17;;;;;;;6.43;0.70;;;18.60;99.90;;;;;;5070863;22;20136;-88
2020/12/13 12:44:45;;;;;;;6.20;0.93;;;18.60;99.90;;;;;;5066836;28;20043;-85
2020/12/13 12:47:13;;;;;;;11.15;1.13;;;18.50;99.90;;;;;;5064397;28;20119;-86
2020/12/13 12:49:40;;;;;;;7.80;0.68;;;18.60;99.90;;;;;;5045295;28;20465;-86
2020/12/13 12:52:08;;;;;;;9.10;1.10;;;18.50;99.90;;;;;;5052249;28;20557;-86
2020/12/13 12:54:35;;;;;;;4.90;0.55;;;18.60;99.90;;;;;;5041915;28;20048;-86
2020/12/13 12:57:03;;;;;;;2.90;0.50;;;18.70;99.90;;;;;;5070263;28;20032;-86
2020/12/13 12:59:38;;;;;;;6.65;0.93;;;18.60;99.90;;;;;;5061162;28;20444;-85
2020/12/13 13:02:06;;;;;;;5.57;0.95;;;18.60;99.90;;;;;;5070091;28;20116;-86
2020/12/13 13:04:40;;;;;;;5.43;0.40;;;18.70;99.90;;;;;;5048193;28;20029;-85